createdAt,value
2022-11-05T00:00:32.247Z,96807.63
2022-11-05T00:03:17.099Z,96815.75
2022-11-05T00:06:08.387Z,96819.19
2022-11-05T00:08:53.658Z,96819.84
2022-11-05T00:11:40.354Z,96824.88
2022-11-05T00:14:27.991Z,96826.41
2022-11-05T00:16:57.482Z,96828.41
2022-11-05T00:19:29.234Z,96836.13
2022-11-05T00:22:14.032Z,96828.78
2022-11-05T00:24:58.872Z,96830.75
2022-11-05T00:27:25.497Z,96834.19
2022-11-05T00:29:54.252Z,96835.34
2022-11-05T00:32:23.073Z,96831.88
2022-11-05T00:34:49.568Z,96843.50
2022-11-05T00:37:16.098Z,96845.78
2022-11-05T00:39:45.098Z,96843.56
2022-11-05T00:42:30.147Z,96846.56
2022-11-05T00:45:02.548Z,96860.06
2022-11-05T00:47:51.918Z,96851.19
2022-11-05T00:50:22.191Z,96853.91
2022-11-05T00:52:59.622Z,96854.97
2022-11-05T00:55:26.277Z,96856.09
2022-11-05T00:57:52.790Z,96856.53
2022-11-05T01:00:19.483Z,96857.31
2022-11-05T01:02:46.251Z,96863.53
2022-11-05T01:05:13.982Z,96870.47
2022-11-05T01:07:42.982Z,96873.97
2022-11-05T01:10:09.683Z,96874.47
2022-11-05T01:12:36.194Z,96875.16
2022-11-05T01:15:07.747Z,96879.78
2022-11-05T01:17:34.445Z,96883.59
2022-11-05T01:20:00.966Z,96889.72
2022-11-05T01:22:29.722Z,96895.88
2022-11-05T01:24:56.301Z,96895.09
2022-11-05T01:27:25.036Z,96893.16
2022-11-05T01:29:51.562Z,96890.06
2022-11-05T01:32:18.075Z,96899.34
2022-11-05T01:34:46.908Z,96892.78
2022-11-05T01:37:18.275Z,96898.59
2022-11-05T01:39:49.692Z,96901.34
2022-11-05T01:42:22.483Z,96903.22
2022-11-05T01:45:10.758Z,96902.84
2022-11-05T01:47:58.230Z,96905.16
2022-11-05T01:50:42.808Z,96904.00
2022-11-05T01:53:21.355Z,96902.84
2022-11-05T01:56:01.034Z,96900.13
2022-11-05T01:58:34.655Z,96904.41
2022-11-05T02:01:03.431Z,96905.13
2022-11-05T02:03:35.798Z,96904.38
2022-11-05T02:06:09.671Z,96908.63
2022-11-05T02:08:57.417Z,96909.81
2022-11-05T02:11:24.824Z,96902.88
2022-11-05T02:13:51.902Z,96900.94
2022-11-05T02:16:18.363Z,96909.06
2022-11-05T02:18:53.506Z,96906.75
2022-11-05T02:22:01.935Z,96903.66
2022-11-05T02:24:48.852Z,96904.19
2022-11-05T02:28:01.309Z,96898.09
2022-11-05T02:30:53.749Z,96906.59
2022-11-05T02:33:33.716Z,96906.47
2022-11-05T02:36:18.298Z,96903.69
2022-11-05T02:38:56.098Z,96894.78
2022-11-05T02:41:31.464Z,96903.97
2022-11-05T02:44:16.917Z,96905.13
2022-11-05T02:47:04.206Z,96909.00
2022-11-05T02:49:52.503Z,96911.75
2022-11-05T02:52:33.902Z,96915.66
2022-11-05T02:55:30.540Z,96914.13
2022-11-05T02:57:59.760Z,96924.91
2022-11-05T03:00:48.308Z,96916.03
2022-11-05T03:03:53.682Z,96928.38
2022-11-05T03:06:29.179Z,96929.19
2022-11-05T03:09:07.744Z,96931.13
2022-11-05T03:11:48.032Z,96929.22
2022-11-05T03:14:35.540Z,96930.34
2022-11-05T03:17:22.304Z,96934.63
2022-11-05T03:19:57.949Z,96936.94
2022-11-05T03:22:31.052Z,96935.41
2022-11-05T03:25:11.529Z,96944.22
2022-11-05T03:27:43.300Z,96943.84
2022-11-05T03:30:15.666Z,96941.53
2022-11-05T03:32:49.096Z,96945.75
2022-11-05T03:35:21.025Z,96948.47
2022-11-05T03:37:53.902Z,96948.09
2022-11-05T03:40:25.142Z,96950.03
2022-11-05T03:42:57.729Z,96953.94
2022-11-05T03:45:32.804Z,96957.03
2022-11-05T03:48:05.147Z,96962.81
2022-11-05T03:50:41.065Z,96960.91
2022-11-05T03:53:21.089Z,96961.28
2022-11-05T03:56:14.134Z,96962.53
2022-11-05T03:58:53.365Z,96966.75
2022-11-05T04:01:23.350Z,96970.63
2022-11-05T04:03:49.915Z,96972.94
2022-11-05T04:06:34.754Z,96973.72
2022-11-05T04:09:19.734Z,96976.03
2022-11-05T04:12:04.711Z,96973.75
2022-11-05T04:14:31.386Z,96974.94
2022-11-05T04:17:06.890Z,96975.34
2022-11-05T04:19:59.535Z,96974.50
2022-11-05T04:22:46.901Z,96981.09
2022-11-05T04:25:17.525Z,96978.41
2022-11-05T04:27:44.735Z,96983.78
2022-11-05T04:30:21.794Z,96992.66
2022-11-05T04:33:12.981Z,96994.94
2022-11-05T04:35:39.671Z,96991.06
2022-11-05T04:38:11.169Z,96990.28
2022-11-05T04:40:40.475Z,96994.53
2022-11-05T04:43:15.036Z,96991.03
2022-11-05T04:45:45.481Z,96993.00
2022-11-05T04:48:16.552Z,97002.28
2022-11-05T04:50:45.623Z,96999.16
2022-11-05T04:53:12.338Z,97001.50
2022-11-05T04:55:41.296Z,97012.66
2022-11-05T04:58:12.548Z,97017.69
2022-11-05T05:00:39.052Z,97018.16
2022-11-05T05:03:08.813Z,97024.28
2022-11-05T05:05:35.533Z,97023.16
2022-11-05T05:08:05.792Z,97026.63
2022-11-05T05:10:32.671Z,97031.25
2022-11-05T05:13:01.729Z,97028.94
2022-11-05T05:15:28.261Z,97016.97
2022-11-05T05:17:57.295Z,97026.22
2022-11-05T05:20:44.930Z,97024.31
2022-11-05T05:23:13.821Z,97024.31
2022-11-05T05:25:40.406Z,97030.09
2022-11-05T05:28:06.908Z,97031.25
2022-11-05T05:30:35.939Z,97034.72
2022-11-05T05:33:04.004Z,97032.41
2022-11-05T05:35:31.233Z,97039.75
2022-11-05T05:37:57.895Z,97033.63
2022-11-05T05:40:24.539Z,97035.16
2022-11-05T05:42:59.381Z,97032.47
2022-11-05T05:45:30.712Z,97037.09
2022-11-05T05:48:02.186Z,97040.91
2022-11-05T05:50:28.732Z,97037.44
2022-11-05T05:52:58.308Z,97037.06
2022-11-05T05:55:27.103Z,97038.25
2022-11-05T05:57:54.350Z,97048.66
2022-11-05T06:00:21.069Z,97046.00
2022-11-05T06:02:47.814Z,97055.63
2022-11-05T06:05:16.671Z,97058.31
2022-11-05T06:07:43.176Z,97063.72
2022-11-05T06:10:11.951Z,97067.19
2022-11-05T06:12:40.778Z,97065.25
2022-11-05T06:15:15.074Z,97076.06
2022-11-05T06:17:44.635Z,97066.81
2022-11-05T06:20:14.558Z,97078.75
2022-11-05T06:22:43.660Z,97075.66
2022-11-05T06:25:10.713Z,97088.00
2022-11-05T06:27:37.414Z,97090.31
2022-11-05T06:30:07.428Z,97096.91
2022-11-05T06:32:36.541Z,97103.06
2022-11-05T06:35:05.736Z,97101.56
2022-11-05T06:37:34.661Z,97106.19
2022-11-05T06:40:01.346Z,97114.28
2022-11-05T06:42:27.927Z,97121.22
2022-11-05T06:44:56.667Z,97118.88
2022-11-05T06:47:25.921Z,97115.81
2022-11-05T06:49:57.322Z,97120.81
2022-11-05T06:52:23.840Z,97126.56
2022-11-05T06:54:52.579Z,97128.47
2022-11-05T06:57:23.698Z,97131.59
2022-11-05T06:59:50.199Z,97127.34
2022-11-05T07:02:19.277Z,97135.88
2022-11-05T07:04:45.817Z,97140.84
2022-11-05T07:07:12.344Z,97144.75
2022-11-05T07:09:43.142Z,97147.44
2022-11-05T07:12:10.331Z,97150.50
2022-11-05T07:14:36.942Z,97151.25
2022-11-05T07:17:03.599Z,97157.03
2022-11-05T07:19:32.325Z,97164.00
2022-11-05T07:21:58.858Z,97163.59
2022-11-05T07:24:32.481Z,97170.94
2022-11-05T07:26:59.021Z,97172.91
2022-11-05T07:29:25.609Z,97173.69
2022-11-05T07:31:52.140Z,97185.69
2022-11-05T07:34:18.618Z,97189.94
2022-11-05T07:36:47.367Z,97209.97
2022-11-05T07:39:18.702Z,97209.22
2022-11-05T07:41:45.187Z,97202.69
2022-11-05T07:44:12.007Z,97201.13
2022-11-05T07:46:38.487Z,97198.78
2022-11-05T07:49:07.744Z,97201.47
2022-11-05T07:51:36.348Z,97205.72
2022-11-05T07:54:03.081Z,97210.34
2022-11-05T07:56:29.583Z,97208.00
2022-11-05T07:58:56.090Z,97206.81
2022-11-05T08:01:22.800Z,97223.44
2022-11-05T08:03:49.513Z,97217.25
2022-11-05T08:06:16.121Z,97215.66
2022-11-05T08:08:42.614Z,97222.56
2022-11-05T08:11:10.337Z,97222.16
2022-11-05T08:13:37.145Z,97224.81
2022-11-05T08:16:04.686Z,97223.66
2022-11-05T08:18:32.500Z,97234.06
2022-11-05T08:21:05.816Z,97236.28
2022-11-05T08:23:32.415Z,97240.53
2022-11-05T08:26:04.806Z,97248.97
2022-11-05T08:28:31.749Z,97236.22
2022-11-05T08:30:58.480Z,97232.69
2022-11-05T08:33:29.078Z,97240.00
2022-11-05T08:35:58.683Z,97232.66
2022-11-05T08:38:27.273Z,97241.44
2022-11-05T08:40:58.728Z,97238.69
2022-11-05T08:43:25.469Z,97237.03
2022-11-05T08:45:55.095Z,97245.13
2022-11-05T08:48:21.643Z,97245.34
2022-11-05T08:50:53.473Z,97239.72
2022-11-05T08:53:20.299Z,97251.84
2022-11-05T08:55:47.815Z,97253.06
2022-11-05T08:58:20.714Z,97244.66
2022-11-05T09:00:49.774Z,97247.84
2022-11-05T09:03:17.473Z,97253.25
2022-11-05T09:05:44.242Z,97247.47
2022-11-05T09:08:19.026Z,97251.00
2022-11-05T09:10:47.019Z,97257.59
2022-11-05T09:13:19.016Z,97258.66
2022-11-05T09:15:47.245Z,97264.06
2022-11-05T09:18:14.678Z,97264.03
2022-11-05T09:20:41.885Z,97269.00
2022-11-05T09:23:16.963Z,97268.94
2022-11-05T09:25:46.316Z,97272.41
2022-11-05T09:28:20.208Z,97277.44
2022-11-05T09:30:52.066Z,97283.22
2022-11-05T09:33:24.132Z,97277.84
2022-11-05T09:35:51.887Z,97280.59
2022-11-05T09:38:21.198Z,97279.84
2022-11-05T09:40:47.670Z,97289.97
2022-11-05T09:43:31.219Z,97294.28
2022-11-05T09:46:03.530Z,97291.63
2022-11-05T09:48:32.134Z,97299.72
2022-11-05T09:51:01.531Z,97300.47
2022-11-05T09:53:28.331Z,97307.03
2022-11-05T09:55:58.050Z,97304.63
2022-11-05T09:58:43.988Z,97306.44
2022-11-05T10:01:21.522Z,97315.31
2022-11-05T10:03:52.199Z,97317.47
2022-11-05T10:06:24.229Z,97315.06
2022-11-05T10:09:01.510Z,97316.34
2022-11-05T10:11:35.697Z,97323.97
2022-11-05T10:14:32.985Z,97320.09
2022-11-05T10:17:05.246Z,97331.03
2022-11-05T10:19:45.596Z,97330.25
2022-11-05T10:22:16.575Z,97323.97
2022-11-05T10:24:47.119Z,97322.91
2022-11-05T10:27:21.527Z,97325.09
2022-11-05T10:29:53.298Z,97314.22
2022-11-05T10:32:31.493Z,97319.25
2022-11-05T10:35:01.910Z,97315.34
2022-11-05T10:37:33.481Z,97313.28
2022-11-05T10:40:01.721Z,97312.38
2022-11-05T10:42:28.175Z,97302.91
2022-11-05T10:45:09.075Z,97304.88
2022-11-05T10:48:03.629Z,97308.63
2022-11-05T10:50:30.460Z,97319.41
2022-11-05T10:53:02.648Z,97315.88
2022-11-05T10:55:31.626Z,97315.03
2022-11-05T10:58:13.491Z,97316.63
2022-11-05T11:00:40.353Z,97319.19
2022-11-05T11:03:38.217Z,97324.06
2022-11-05T11:06:30.341Z,97321.19
2022-11-05T11:09:02.713Z,97326.94
2022-11-05T11:11:31.754Z,97333.63
2022-11-05T11:14:02.953Z,97340.63
2022-11-05T11:16:35.755Z,97335.56
2022-11-05T11:19:05.763Z,97334.84
2022-11-05T11:21:33.228Z,97335.31
2022-11-05T11:24:07.024Z,97332.97
2022-11-05T11:26:40.407Z,97330.03
2022-11-05T11:29:14.021Z,97337.31
2022-11-05T11:31:50.289Z,97327.81
2022-11-05T11:34:29.375Z,97324.84
2022-11-05T11:37:12.834Z,97324.31
2022-11-05T11:39:46.335Z,97325.63
2022-11-05T11:42:24.310Z,97320.13
2022-11-05T11:44:54.093Z,97328.16
2022-11-05T11:47:29.525Z,97327.00
2022-11-05T11:50:01.317Z,97324.97
2022-11-05T11:52:37.406Z,97321.56
2022-11-05T11:55:12.769Z,97321.19
2022-11-05T11:57:49.628Z,97329.63
2022-11-05T12:00:20.352Z,97333.03
2022-11-05T12:02:54.853Z,97330.69
2022-11-05T12:05:50.255Z,97332.97
2022-11-05T12:08:16.738Z,97323.50
2022-11-05T12:11:13.128Z,97329.31
2022-11-05T12:14:04.108Z,97338.28
2022-11-05T12:16:36.859Z,97330.13
2022-11-05T12:19:07.871Z,97328.13
2022-11-05T12:21:52.996Z,97315.72
2022-11-05T12:24:47.435Z,97319.03
2022-11-05T12:27:16.841Z,97318.75
2022-11-05T12:30:05.239Z,97327.06
2022-11-05T12:33:02.788Z,97315.56
2022-11-05T12:35:54.835Z,97315.78
2022-11-05T12:38:27.456Z,97320.91
2022-11-05T12:41:16.383Z,97318.28
2022-11-05T12:43:54.779Z,97327.75
2022-11-05T12:46:33.567Z,97325.34
2022-11-05T12:49:41.187Z,97315.19
2022-11-05T12:52:18.251Z,97315.78
2022-11-05T12:55:22.629Z,97318.94
2022-11-05T12:57:53.443Z,97314.72
2022-11-05T13:00:21.909Z,97316.44
2022-11-05T13:03:03.637Z,97304.19
2022-11-05T13:05:35.113Z,97315.28
2022-11-05T13:08:09.847Z,97311.25
2022-11-05T13:10:57.233Z,97312.88
2022-11-05T13:13:33.971Z,97317.09
2022-11-05T13:16:13.111Z,97312.13
2022-11-05T13:18:49.535Z,97308.63
2022-11-05T13:21:24.102Z,97318.06
2022-11-05T13:23:55.441Z,97309.81
2022-11-05T13:26:31.713Z,97312.72
2022-11-05T13:29:16.831Z,97299.53
2022-11-05T13:31:54.201Z,97300.44
2022-11-05T13:34:20.858Z,97296.81
2022-11-05T13:37:09.100Z,97295.91
2022-11-05T13:39:45.190Z,97295.03
2022-11-05T13:42:36.173Z,97288.47
2022-11-05T13:45:14.836Z,97282.31
2022-11-05T13:48:09.105Z,97287.00
2022-11-05T13:50:49.300Z,97285.06
2022-11-05T13:53:41.145Z,97288.97
2022-11-05T13:56:32.449Z,97286.72
2022-11-05T13:59:26.545Z,97285.47
2022-11-05T14:01:58.248Z,97291.63
2022-11-05T14:04:30.821Z,97279.34
2022-11-05T14:07:12.542Z,97293.56
2022-11-05T14:09:40.812Z,97286.19
2022-11-05T14:12:18.798Z,97288.19
2022-11-05T14:14:58.464Z,97289.72
2022-11-05T14:17:31.603Z,97289.69
2022-11-05T14:20:01.114Z,97284.09
2022-11-05T14:22:29.103Z,97296.81
2022-11-05T14:24:57.873Z,97295.34
2022-11-05T14:27:36.632Z,97301.09
2022-11-05T14:30:40.954Z,97302.13
2022-11-05T14:33:31.114Z,97310.22
2022-11-05T14:36:22.498Z,97307.91
2022-11-05T14:38:54.223Z,97305.59
2022-11-05T14:41:23.957Z,97304.81
2022-11-05T14:44:06.838Z,97309.75
2022-11-05T14:46:41.617Z,97298.19
2022-11-05T14:49:21.003Z,97304.78
2022-11-05T14:51:55.904Z,97309.03
2022-11-05T14:54:40.733Z,97307.13
2022-11-05T14:57:29.930Z,97310.97
2022-11-05T15:00:00.810Z,97311.75
2022-11-05T15:02:34.704Z,97314.91
2022-11-05T15:05:36.053Z,97323.94
2022-11-05T15:08:37.255Z,97320.31
2022-11-05T15:11:09.627Z,97321.06
2022-11-05T15:13:55.827Z,97328.78
2022-11-05T15:16:35.096Z,97328.03
2022-11-05T15:19:03.261Z,97325.69
2022-11-05T15:21:36.307Z,97325.31
2022-11-05T15:24:07.174Z,97330.75
2022-11-05T15:26:54.377Z,97339.03
2022-11-05T15:29:25.730Z,97337.16
2022-11-05T15:31:53.152Z,97333.09
2022-11-05T15:34:22.650Z,97334.84
2022-11-05T15:36:56.924Z,97343.38
2022-11-05T15:39:39.238Z,97346.97
2022-11-05T15:42:14.614Z,97341.25
2022-11-05T15:44:46.423Z,97344.38
2022-11-05T15:47:20.244Z,97336.25
2022-11-05T15:50:14.705Z,97339.53
2022-11-05T15:52:53.870Z,97343.72
2022-11-05T15:55:27.341Z,97341.75
2022-11-05T15:58:06.848Z,97344.09
2022-11-05T16:00:36.358Z,97338.31
2022-11-05T16:03:23.857Z,97341.09
2022-11-05T16:05:50.515Z,97337.69
2022-11-05T16:08:21.208Z,97335.47
2022-11-05T16:10:50.367Z,97342.94
2022-11-05T16:13:33.656Z,97343.00
2022-11-05T16:16:09.045Z,97350.94
2022-11-05T16:18:38.791Z,97346.75
2022-11-05T16:21:08.286Z,97355.34
2022-11-05T16:23:42.846Z,97356.25
2022-11-05T16:26:55.788Z,97356.25
2022-11-05T16:29:27.944Z,97357.41
2022-11-05T16:31:58.025Z,97361.31
2022-11-05T16:34:27.531Z,97363.69
2022-11-05T16:36:57.947Z,97366.41
2022-11-05T16:39:25.187Z,97367.19
2022-11-05T16:41:51.846Z,97371.41
2022-11-05T16:44:18.362Z,97372.22
2022-11-05T16:46:48.608Z,97384.19
2022-11-05T16:49:15.972Z,97384.19
2022-11-05T16:51:42.925Z,97392.28
2022-11-05T16:54:09.754Z,97386.53
2022-11-05T16:56:36.862Z,97387.66
2022-11-05T16:59:04.228Z,97384.19
2022-11-05T17:01:33.576Z,97386.13
2022-11-05T17:04:00.214Z,97382.66
2022-11-05T17:06:29.204Z,97387.66
2022-11-05T17:08:55.723Z,97389.56
2022-11-05T17:11:22.253Z,97390.75
2022-11-05T17:13:51.327Z,97392.66
2022-11-05T17:16:18.024Z,97392.63
2022-11-05T17:18:46.901Z,97400.72
2022-11-05T17:21:18.224Z,97403.78
2022-11-05T17:23:47.043Z,97423.38
2022-11-05T17:26:14.091Z,97414.91
2022-11-05T17:28:40.802Z,97409.09
2022-11-05T17:31:14.133Z,97421.78
2022-11-05T17:33:43.257Z,97420.59
2022-11-05T17:36:13.580Z,97424.81
2022-11-05T17:38:40.190Z,97422.16
2022-11-05T17:41:17.062Z,97425.16
2022-11-05T17:43:46.362Z,97420.97
2022-11-05T17:46:16.126Z,97415.19
2022-11-05T17:48:43.096Z,97417.84
2022-11-05T17:51:11.654Z,97422.47
2022-11-05T17:53:38.195Z,97417.06
2022-11-05T17:56:11.963Z,97420.56
2022-11-05T17:58:39.185Z,97426.75
2022-11-05T18:01:07.229Z,97440.22
2022-11-05T18:03:33.996Z,97447.91
2022-11-05T18:06:06.794Z,97447.91
2022-11-05T18:08:36.004Z,97447.50
2022-11-05T18:11:04.840Z,97447.44
2022-11-05T18:13:31.343Z,97447.47
2022-11-05T18:15:58.013Z,97443.31
2022-11-05T18:18:27.222Z,97445.69
2022-11-05T18:20:57.562Z,97447.97
2022-11-05T18:23:26.745Z,97454.50
2022-11-05T18:25:55.684Z,97445.66
2022-11-05T18:28:22.195Z,97433.28
2022-11-05T18:30:53.292Z,97425.94
2022-11-05T18:33:19.843Z,97420.22
2022-11-05T18:35:46.557Z,97418.31
2022-11-05T18:38:13.194Z,97420.91
2022-11-05T18:40:41.941Z,97416.38
2022-11-05T18:43:11.430Z,97420.78
2022-11-05T18:45:38.156Z,97412.81
2022-11-05T18:48:08.079Z,97416.38
2022-11-05T18:50:34.584Z,97414.84
2022-11-05T18:53:01.105Z,97423.75
2022-11-05T18:55:27.677Z,97434.31
2022-11-05T18:57:56.411Z,97434.00
2022-11-05T19:00:25.275Z,97429.38
2022-11-05T19:02:54.295Z,97439.75
2022-11-05T19:05:28.918Z,97434.72
2022-11-05T19:07:56.170Z,97433.53
2022-11-05T19:10:22.841Z,97431.22
2022-11-05T19:12:50.624Z,97434.28
2022-11-05T19:15:21.927Z,97429.75
2022-11-05T19:17:48.500Z,97432.44
2022-11-05T19:20:18.226Z,97427.06
2022-11-05T19:22:44.732Z,97431.25
2022-11-05T19:25:11.746Z,97428.16
2022-11-05T19:27:38.662Z,97427.38
2022-11-05T19:30:05.947Z,97420.91
2022-11-05T19:32:37.226Z,97421.28
2022-11-05T19:35:04.149Z,97425.97
2022-11-05T19:37:30.649Z,97422.03
2022-11-05T19:39:57.191Z,97420.84
2022-11-05T19:42:24.107Z,97418.53
2022-11-05T19:44:53.130Z,97420.81
2022-11-05T19:47:19.615Z,97421.63
2022-11-05T19:49:46.132Z,97432.44
2022-11-05T19:52:15.148Z,97427.06
2022-11-05T19:54:41.748Z,97428.16
2022-11-05T19:57:10.561Z,97427.81
2022-11-05T19:59:37.131Z,97429.75
2022-11-05T20:02:03.839Z,97425.13
2022-11-05T20:04:32.919Z,97430.25
2022-11-05T20:06:59.431Z,97436.06
2022-11-05T20:09:28.327Z,97436.13
2022-11-05T20:11:57.376Z,97448.78
2022-11-05T20:14:25.769Z,97445.31
2022-11-05T20:16:52.893Z,97449.16
2022-11-05T20:19:21.162Z,97459.44
2022-11-05T20:21:48.462Z,97463.31
2022-11-05T20:24:23.663Z,97463.59
2022-11-05T20:26:54.269Z,97456.41
2022-11-05T20:29:21.753Z,97452.56
2022-11-05T20:31:52.307Z,97439.50
2022-11-05T20:34:18.825Z,97438.81
2022-11-05T20:36:45.343Z,97446.47
2022-11-05T20:39:12.169Z,97449.09
2022-11-05T20:41:41.233Z,97452.06
2022-11-05T20:44:07.795Z,97455.53
2022-11-05T20:46:34.635Z,97451.69
2022-11-05T20:49:01.149Z,97450.16
2022-11-05T20:51:27.722Z,97457.03
2022-11-05T20:54:00.604Z,97457.03
2022-11-05T20:56:30.339Z,97460.63
2022-11-05T20:58:58.791Z,97464.81
2022-11-05T21:01:27.705Z,97455.31
2022-11-05T21:03:54.524Z,97452.63
2022-11-05T21:06:21.085Z,97457.66
2022-11-05T21:08:51.384Z,97452.31
2022-11-05T21:11:21.705Z,97448.50
2022-11-05T21:13:48.695Z,97453.09
2022-11-05T21:16:18.707Z,97455.72
2022-11-05T21:18:50.166Z,97454.97
2022-11-05T21:21:22.466Z,97458.34
2022-11-05T21:23:53.815Z,97464.84
2022-11-05T21:26:22.686Z,97458.22
2022-11-05T21:28:49.181Z,97465.94
2022-11-05T21:31:15.679Z,97459.84
2022-11-05T21:33:44.436Z,97454.47
2022-11-05T21:36:12.987Z,97448.72
2022-11-05T21:38:42.427Z,97444.13
2022-11-05T21:41:13.836Z,97438.34
2022-11-05T21:43:41.747Z,97444.50
2022-11-05T21:46:14.539Z,97449.81
2022-11-05T21:48:41.054Z,97436.72
2022-11-05T21:51:26.404Z,97437.88
2022-11-05T21:54:14.177Z,97437.53
2022-11-05T21:56:59.481Z,97448.25
2022-11-05T21:59:46.755Z,97456.19
2022-11-05T22:02:18.182Z,97456.53
2022-11-05T22:04:47.460Z,97453.00
2022-11-05T22:07:21.139Z,97459.88
2022-11-05T22:09:52.189Z,97461.06
2022-11-05T22:12:21.040Z,97463.38
2022-11-05T22:14:47.543Z,97466.47
2022-11-05T22:17:17.384Z,97460.16
2022-11-05T22:19:46.739Z,97451.38
2022-11-05T22:22:16.019Z,97460.03
2022-11-05T22:24:43.062Z,97458.41
2022-11-05T22:27:13.790Z,97457.03
2022-11-05T22:29:40.524Z,97454.06
2022-11-05T22:32:07.515Z,97447.16
2022-11-05T22:34:36.427Z,97451.28
2022-11-05T22:37:05.554Z,97439.06
2022-11-05T22:39:34.313Z,97440.63
2022-11-05T22:42:05.578Z,97444.75
2022-11-05T22:44:34.825Z,97443.25
2022-11-05T22:47:01.421Z,97451.28
2022-11-05T22:49:27.968Z,97451.50
2022-11-05T22:51:54.457Z,97452.66
2022-11-05T22:54:25.721Z,97457.19
2022-11-05T22:56:53.753Z,97449.19
2022-11-05T22:59:20.445Z,97441.81
2022-11-05T23:01:49.480Z,97442.84
2022-11-05T23:04:18.916Z,97438.38
2022-11-05T23:07:04.063Z,97433.41
2022-11-05T23:09:52.513Z,97434.25
2022-11-05T23:12:31.147Z,97431.31
2022-11-05T23:14:59.027Z,97417.88
2022-11-05T23:17:45.737Z,97417.22
2022-11-05T23:20:45.250Z,97409.97
2022-11-05T23:23:31.090Z,97404.66
2022-11-05T23:25:59.443Z,97414.16
2022-11-05T23:28:30.948Z,97421.59
2022-11-05T23:31:18.681Z,97419.78
2022-11-05T23:33:45.181Z,97429.19
2022-11-05T23:36:31.287Z,97420.88
2022-11-05T23:38:57.784Z,97421.66
2022-11-05T23:41:43.076Z,97410.00
2022-11-05T23:44:27.903Z,97419.91
2022-11-05T23:47:15.559Z,97407.31
2022-11-05T23:49:45.087Z,97405.16
2022-11-05T23:52:11.587Z,97404.94
2022-11-05T23:54:38.105Z,97404.78
2022-11-05T23:57:07.097Z,97397.19
2022-11-05T23:59:35.889Z,97399.63
